Main page
METAR-TAF:

METAR-TAF

Airports :

Chariton Municipal Airport

Chariton, Iowa, United States

latitude: 41-02N, longitude: 093-22W, elevation: 1050 ft

Current weather observation

The report was made 15 minutes ago, at 22:15 UTC
Wind 5 mph from the Northwest
Temperature 25°F
Humidity 39%
Pressure 30.71 in. Hg
Visibility: 10 miles
Clear sky

METAR: KCNC 202215Z AUTO 31004KT 10SM CLR M04/M16 A3071 RMK AO2

Time: 16:30 (22:30 UTC)


TAF: missing

Weather observations and forecasts of more than 4000 airports (METAR and TAF reports).

The available stations are represented by yellow and red dots on the map.

Hover mouse over dot to see the name of the station.

Then click to see weather observations and forecasts.

To change the map : click on the green buttons with a black cross to zoom in, on the green button with a dash to zoom out, or on the green arrows for adjacent maps.


METAR-TAF: